American Canyon, California
Current Conditions -  °F | °C
As of 5:54 PM on Sunday 25 Jan 2015 (Local Time) from KAPC Reporting Station
Clear Clear  
Wind Chill:   Ceiling: Unl
Heat Index:   Visibility: 10mi
Dew Point:   Wind: 6mph
Humidity: 86%   Direction: 80°E
Pressure: 30.01"   Gusts: NA
Location:  38.17°N, 122.25°W
Report Text: KAPC 260154Z 08005KT 10SM CLR 09/07 A3001 RMK AO2 SLP154 T00890067
Loading
Personal Weather Stations






























Interactive Weather Map New forecast layout! Learn more

10-Day Weather Forecast

Advertisements
Track Severe Weather on mobile